Time;durP1;ratioP1;P1;durP2;ratioP2;P2;SDS_P1;SDS_P2;PMS_P1;PMS_P2;Temp;Humidity;BMP_temperature;BMP_pressure;BME280_temperature;BME280_humidity;BME280_pressure;Samples;Min_cycle;Max_cycle;Signal;HPM_P1;HPM_P2
2022/07/27 00:01:21;;;;;;;4.00;2.50;;;18.20;99.90;;;;;;5030837;28;20936;-46
2022/07/27 00:03:48;;;;;;;4.60;2.50;;;18.30;99.90;;;;;;5030516;28;20433;-45
2022/07/27 00:06:15;;;;;;;3.50;2.50;;;18.20;99.90;;;;;;5030834;28;20450;-45
2022/07/27 00:08:42;;;;;;;3.37;2.30;;;18.20;99.90;;;;;;5030087;28;21018;-45
2022/07/27 00:11:10;;;;;;;2.30;2.07;;;18.30;99.90;;;;;;5029993;28;20450;-45
2022/07/27 00:13:39;;;;;;;3.67;2.50;;;18.40;99.90;;;;;;5030353;28;20994;-46
2022/07/27 00:16:06;;;;;;;3.20;2.00;;;18.50;99.90;;;;;;5030513;28;20473;-46
2022/07/27 00:18:33;;;;;;;2.83;2.53;;;18.50;99.90;;;;;;5030369;28;20466;-45
2022/07/27 00:21:00;;;;;;;2.60;2.40;;;18.60;99.90;;;;;;5029977;28;20438;-48
2022/07/27 00:23:27;;;;;;;2.50;2.17;;;18.70;99.90;;;;;;5030192;28;20485;-45
2022/07/27 00:25:54;;;;;;;2.90;2.27;;;18.70;99.90;;;;;;5030272;28;20503;-50
2022/07/27 00:28:21;;;;;;;3.63;2.03;;;18.70;99.90;;;;;;5030239;28;21187;-48
2022/07/27 00:30:50;;;;;;;4.10;2.10;;;18.70;99.90;;;;;;5029822;28;20441;-45
2022/07/27 00:33:17;;;;;;;3.40;2.30;;;18.70;99.90;;;;;;5030139;28;20527;-45
2022/07/27 00:35:44;;;;;;;3.27;2.40;;;18.70;99.90;;;;;;5030131;28;20472;-47
2022/07/27 00:38:12;;;;;;;3.03;2.40;;;18.50;99.90;;;;;;5029945;28;20727;-45
2022/07/27 00:40:39;;;;;;;2.53;2.20;;;18.40;99.90;;;;;;5029287;28;20442;-47
2022/07/27 00:43:06;;;;;;;3.20;2.83;;;18.20;99.90;;;;;;5029328;28;20939;-46
2022/07/27 00:45:33;;;;;;;3.83;2.63;;;18.20;99.90;;;;;;5029951;28;20492;-48
2022/07/27 00:48:01;;;;;;;3.27;2.40;;;18.20;99.90;;;;;;5030271;28;20974;-48
2022/07/27 00:50:28;;;;;;;3.63;2.40;;;18.20;99.90;;;;;;5029600;28;20446;-46
2022/07/27 00:52:55;;;;;;;3.53;2.20;;;18.30;99.90;;;;;;5029895;28;20488;-45
2022/07/27 00:55:23;;;;;;;3.50;2.57;;;18.40;99.90;;;;;;5029546;28;20466;-49
2022/07/27 00:57:50;;;;;;;2.63;2.20;;;18.30;99.90;;;;;;5029842;28;20524;-45
2022/07/27 01:00:18;;;;;;;2.80;2.40;;;18.20;99.90;;;;;;5029584;28;20454;-46
2022/07/27 01:02:45;;;;;;;5.73;2.33;;;18.30;99.90;;;;;;5029842;28;20489;-49
2022/07/27 01:05:13;;;;;;;2.73;2.30;;;18.40;99.90;;;;;;5029817;28;20439;-47
2022/07/27 01:07:40;;;;;;;3.00;1.93;;;18.40;99.90;;;;;;5029417;28;20540;-46
2022/07/27 01:10:08;;;;;;;4.10;2.27;;;18.30;99.90;;;;;;5029083;28;20825;-48
2022/07/27 01:12:35;;;;;;;4.50;2.03;;;18.30;99.90;;;;;;5029694;28;21039;-45
2022/07/27 01:15:02;;;;;;;3.03;2.13;;;18.40;99.90;;;;;;5029498;28;20477;-45
2022/07/27 01:17:30;;;;;;;3.87;2.10;;;18.30;99.90;;;;;;5029412;28;20838;-45
2022/07/27 01:19:58;;;;;;;4.00;2.43;;;18.20;99.90;;;;;;5029289;28;20470;-45
2022/07/27 01:22:26;;;;;;;2.73;2.30;;;18.10;99.90;;;;;;5029772;28;20450;-45
2022/07/27 01:24:54;;;;;;;5.07;2.30;;;18.10;99.90;;;;;;5029670;28;20550;-47
2022/07/27 01:27:21;;;;;;;3.33;2.20;;;18.10;99.90;;;;;;5029350;28;20856;-45
2022/07/27 01:29:48;;;;;;;3.93;2.50;;;18.10;99.90;;;;;;5029707;28;20446;-49
2022/07/27 01:32:15;;;;;;;2.60;2.40;;;18.00;99.90;;;;;;5029749;28;20450;-47
2022/07/27 01:34:42;;;;;;;2.87;2.50;;;18.00;99.90;;;;;;5029453;28;20563;-45
2022/07/27 01:37:10;;;;;;;3.27;2.60;;;18.10;99.90;;;;;;5029462;28;20523;-46
2022/07/27 01:39:38;;;;;;;3.10;2.27;;;18.10;99.90;;;;;;5029236;28;20456;-45
2022/07/27 01:42:05;;;;;;;4.10;2.30;;;18.20;99.90;;;;;;5029517;28;20477;-49
2022/07/27 01:44:32;;;;;;;3.77;2.13;;;18.30;99.90;;;;;;5029315;28;20439;-45
2022/07/27 01:46:59;;;;;;;2.73;2.20;;;18.30;99.90;;;;;;5029334;28;20532;-50
2022/07/27 01:49:26;;;;;;;2.50;1.93;;;18.40;99.90;;;;;;5029146;28;20492;-45
2022/07/27 01:51:53;;;;;;;3.83;2.50;;;18.40;99.90;;;;;;5029436;28;20947;-45
2022/07/27 01:54:20;;;;;;;3.20;2.90;;;18.40;99.90;;;;;;5032201;28;20528;-48
2022/07/27 01:56:50;;;;;;;3.53;2.60;;;18.40;99.90;;;;;;5032841;28;20533;-45
2022/07/27 01:59:17;;;;;;;2.57;2.27;;;18.30;99.90;;;;;;5032438;28;20439;-46
2022/07/27 02:01:44;;;;;;;3.30;2.57;;;18.20;99.90;;;;;;5032987;28;20505;-45
2022/07/27 02:04:11;;;;;;;4.60;2.37;;;18.20;99.90;;;;;;5032896;28;20442;-46
2022/07/27 02:06:38;;;;;;;3.17;2.30;;;18.00;99.90;;;;;;5032664;28;20458;-45
2022/07/27 02:09:05;;;;;;;3.70;2.53;;;17.80;99.90;;;;;;5032314;28;20458;-47
2022/07/27 02:14:18;;;;;;;4.90;2.43;;;17.70;99.90;;;;;;5032460;28;20473;-45
2022/07/27 02:16:45;;;;;;;3.67;2.80;;;17.70;99.90;;;;;;5032515;28;20470;-46
2022/07/27 02:19:12;;;;;;;3.70;2.37;;;17.70;99.90;;;;;;5032884;28;20943;-47
2022/07/27 02:21:39;;;;;;;3.43;2.60;;;17.60;99.90;;;;;;5032353;28;20434;-48
2022/07/27 02:24:07;;;;;;;3.30;2.23;;;17.50;99.90;;;;;;5032703;28;20474;-46
2022/07/27 02:26:34;;;;;;;3.73;2.30;;;17.50;99.90;;;;;;5032326;28;20442;-49
2022/07/27 02:29:01;;;;;;;3.03;2.20;;;17.70;99.90;;;;;;5032234;28;20466;-46
2022/07/27 02:31:29;;;;;;;4.13;2.63;;;17.80;99.90;;;;;;5032359;28;20483;-47
2022/07/27 02:33:56;;;;;;;3.83;2.43;;;17.80;99.90;;;;;;5032109;28;20454;-47
2022/07/27 02:36:23;;;;;;;4.30;2.60;;;17.70;99.90;;;;;;5032251;28;20804;-46
2022/07/27 02:38:50;;;;;;;3.63;2.20;;;17.70;99.90;;;;;;5031755;28;20446;-51
2022/07/27 02:41:17;;;;;;;3.07;2.77;;;17.60;99.90;;;;;;5032260;28;20446;-46
2022/07/27 02:43:44;;;;;;;3.37;2.83;;;17.70;99.90;;;;;;5032113;28;20855;-46
2022/07/27 02:46:11;;;;;;;2.60;2.30;;;17.70;99.90;;;;;;5032150;28;20447;-47
2022/07/27 02:48:40;;;;;;;3.00;2.70;;;17.80;99.90;;;;;;5031758;28;20566;-45
2022/07/27 02:51:07;;;;;;;4.33;2.60;;;17.90;99.90;;;;;;5031797;28;20434;-45
2022/07/27 02:53:34;;;;;;;3.10;2.37;;;17.90;99.90;;;;;;5031986;28;20508;-48
2022/07/27 02:56:01;;;;;;;5.20;2.47;;;17.90;99.90;;;;;;5032029;28;20872;-46
2022/07/27 02:58:28;;;;;;;3.17;2.30;;;17.80;99.90;;;;;;5031614;28;20494;-51
2022/07/27 03:00:55;;;;;;;4.60;2.90;;;17.80;99.90;;;;;;5031535;28;20441;-45
2022/07/27 03:03:22;;;;;;;2.83;2.33;;;17.80;99.90;;;;;;5031666;28;20459;-49
2022/07/27 03:05:50;;;;;;;6.10;2.67;;;17.70;99.90;;;;;;5030713;28;20438;-45
2022/07/27 03:08:17;;;;;;;4.57;2.23;;;17.70;99.90;;;;;;5031401;28;20469;-46
2022/07/27 03:10:44;;;;;;;4.40;2.90;;;17.80;99.90;;;;;;5031220;28;20450;-48
2022/07/27 03:13:11;;;;;;;2.73;2.20;;;17.90;99.90;;;;;;5031551;28;20784;-46
2022/07/27 03:15:39;;;;;;;3.00;2.00;;;17.90;99.90;;;;;;5031233;28;21015;-45
2022/07/27 03:18:06;;;;;;;3.53;2.20;;;18.00;99.90;;;;;;5031410;28;20466;-45
2022/07/27 03:20:33;;;;;;;3.30;2.30;;;18.00;99.90;;;;;;5031221;28;20862;-47
2022/07/27 03:23:01;;;;;;;3.70;2.40;;;18.10;99.90;;;;;;5031419;28;20500;-47
2022/07/27 03:25:28;;;;;;;3.00;2.60;;;18.10;99.90;;;;;;5031098;28;20438;-46
2022/07/27 03:27:55;;;;;;;2.53;2.03;;;18.00;99.90;;;;;;5031172;28;20709;-46
2022/07/27 03:30:22;;;;;;;3.00;2.50;;;18.00;99.90;;;;;;5030856;28;20430;-46
2022/07/27 03:32:49;;;;;;;5.67;2.53;;;18.00;99.90;;;;;;5031151;28;20504;-46
2022/07/27 03:35:16;;;;;;;3.13;2.80;;;17.90;99.90;;;;;;5031275;28;20548;-46
2022/07/27 03:37:43;;;;;;;3.37;2.80;;;17.90;99.90;;;;;;5097338;22;20481;-50
2022/07/27 03:40:12;;;;;;;3.20;2.90;;;17.90;99.90;;;;;;5050179;28;20507;-50
2022/07/27 03:42:39;;;;;;;3.30;2.30;;;17.80;99.90;;;;;;5050888;28;20429;-48
2022/07/27 03:45:07;;;;;;;3.87;2.80;;;17.60;99.90;;;;;;5051148;28;20437;-48
2022/07/27 03:47:34;;;;;;;3.20;2.43;;;17.50;99.90;;;;;;5050693;28;20469;-47
2022/07/27 03:50:02;;;;;;;4.00;2.23;;;17.60;99.90;;;;;;5050601;28;20499;-49
2022/07/27 03:52:29;;;;;;;2.87;2.67;;;17.60;99.90;;;;;;5050645;28;20461;-50
2022/07/27 03:54:56;;;;;;;3.23;2.57;;;17.70;99.90;;;;;;5050517;28;20472;-48
2022/07/27 03:57:25;;;;;;;3.30;2.57;;;17.70;99.90;;;;;;5050531;28;20544;-49
2022/07/27 03:59:53;;;;;;;7.80;3.33;;;17.80;99.90;;;;;;5050387;28;20446;-48
2022/07/27 04:02:20;;;;;;;3.90;2.57;;;17.80;99.90;;;;;;5050396;28;20441;-51
2022/07/27 04:04:47;;;;;;;2.83;2.27;;;17.80;99.90;;;;;;5050893;28;20992;-49
2022/07/27 04:07:13;;;;;;;3.30;3.00;;;17.70;99.90;;;;;;5050244;28;20477;-48
2022/07/27 04:09:41;;;;;;;3.10;2.80;;;17.80;99.90;;;;;;5049934;28;20449;-50
2022/07/27 04:12:08;;;;;;;2.83;2.07;;;17.80;99.90;;;;;;5050370;28;20441;-47
2022/07/27 04:14:36;;;;;;;3.10;2.27;;;17.70;99.90;;;;;;5050206;28;20536;-48
2022/07/27 04:17:03;;;;;;;4.13;2.57;;;17.70;99.90;;;;;;5049919;28;20434;-48
2022/07/27 04:19:30;;;;;;;3.83;2.53;;;17.70;99.90;;;;;;5049805;28;20919;-47
2022/07/27 04:21:57;;;;;;;4.00;2.80;;;17.70;99.90;;;;;;5050290;28;20449;-48
2022/07/27 04:24:24;;;;;;;4.23;2.90;;;17.70;99.90;;;;;;5050231;28;20892;-48
2022/07/27 04:26:51;;;;;;;3.93;3.23;;;17.70;99.90;;;;;;5049961;28;20503;-50
2022/07/27 04:29:18;;;;;;;5.50;3.20;;;17.60;99.90;;;;;;5049895;28;20979;-48
2022/07/27 04:31:47;;;;;;;5.20;2.77;;;17.60;99.90;;;;;;5050041;28;20445;-50
2022/07/27 04:34:14;;;;;;;3.70;2.90;;;17.50;99.90;;;;;;5050131;28;20480;-47
2022/07/27 04:36:41;;;;;;;4.50;2.80;;;17.50;99.90;;;;;;5049928;28;20890;-48
2022/07/27 04:39:09;;;;;;;6.93;2.90;;;17.60;99.90;;;;;;5049668;28;20480;-49
2022/07/27 04:41:36;;;;;;;2.80;2.20;;;17.70;99.90;;;;;;5049637;28;20429;-50
2022/07/27 04:44:03;;;;;;;2.97;2.70;;;17.70;99.90;;;;;;5050384;28;21011;-48
2022/07/27 04:46:30;;;;;;;4.63;2.47;;;17.70;99.90;;;;;;5050440;28;20438;-51
2022/07/27 04:48:59;;;;;;;3.50;2.70;;;17.80;99.90;;;;;;5049592;28;20815;-48
2022/07/27 04:51:25;;;;;;;3.30;2.83;;;17.90;99.90;;;;;;5049930;28;20449;-48
2022/07/27 04:53:53;;;;;;;3.87;2.77;;;17.90;99.90;;;;;;5049731;28;20433;-49
2022/07/27 04:56:20;;;;;;;5.23;3.10;;;17.90;99.90;;;;;;5049829;28;20570;-48
2022/07/27 04:58:47;;;;;;;3.53;3.23;;;17.90;99.90;;;;;;5049463;28;20461;-47
2022/07/27 05:01:14;;;;;;;3.20;2.90;;;17.90;99.90;;;;;;5049664;28;20540;-48
2022/07/27 05:03:42;;;;;;;5.80;3.20;;;17.80;99.90;;;;;;5049721;28;20773;-48
2022/07/27 05:06:10;;;;;;;3.80;3.40;;;17.80;99.90;;;;;;5049602;28;20524;-48
2022/07/27 05:08:37;;;;;;;4.23;3.00;;;17.90;99.90;;;;;;5049627;28;20476;-48
2022/07/27 05:11:04;;;;;;;4.20;3.47;;;17.90;99.90;;;;;;5049262;28;20453;-49
2022/07/27 05:13:31;;;;;;;3.90;3.10;;;18.00;99.90;;;;;;5049674;28;20961;-48
2022/07/27 05:15:58;;;;;;;4.50;3.70;;;18.00;99.90;;;;;;5049286;28;20829;-51
2022/07/27 05:18:25;;;;;;;3.83;3.10;;;18.00;99.90;;;;;;5049486;28;20965;-47
2022/07/27 05:20:53;;;;;;;5.47;3.00;;;18.00;99.90;;;;;;5049215;28;20484;-51
2022/07/27 05:23:21;;;;;;;4.10;2.90;;;18.10;99.90;;;;;;5050098;28;20499;-49
2022/07/27 05:25:48;;;;;;;3.10;2.60;;;18.10;99.90;;;;;;5049897;28;20496;-48
2022/07/27 05:28:15;;;;;;;5.03;3.20;;;18.20;99.90;;;;;;5050846;28;20461;-53
2022/07/27 05:30:42;;;;;;;4.27;2.83;;;18.20;99.90;;;;;;5053301;28;20499;-48
2022/07/27 05:33:09;;;;;;;3.80;3.23;;;18.30;99.90;;;;;;5053482;28;20914;-50
2022/07/27 05:35:36;;;;;;;3.77;2.53;;;18.30;99.90;;;;;;5053272;28;20469;-48
2022/07/27 05:38:04;;;;;;;3.23;2.93;;;18.40;99.90;;;;;;5053150;28;20477;-51
2022/07/27 05:40:32;;;;;;;3.70;3.17;;;18.30;99.90;;;;;;5052690;28;20460;-48
2022/07/27 05:42:59;;;;;;;4.63;3.00;;;18.30;99.90;;;;;;5053189;28;20449;-48
2022/07/27 05:45:26;;;;;;;5.03;3.10;;;18.40;99.90;;;;;;5053180;28;20867;-49
2022/07/27 05:47:54;;;;;;;3.70;3.00;;;18.40;99.90;;;;;;5053211;28;20469;-49
2022/07/27 05:50:21;;;;;;;3.33;3.00;;;18.50;99.90;;;;;;5052805;28;20815;-49
2022/07/27 05:52:48;;;;;;;7.70;3.73;;;18.60;99.90;;;;;;5052975;28;20494;-49
2022/07/27 05:55:15;;;;;;;4.07;3.67;;;18.60;99.90;;;;;;5053058;28;20476;-48
2022/07/27 05:57:44;;;;;;;4.00;3.50;;;18.60;99.90;;;;;;5052768;28;20970;-49
2022/07/27 06:00:12;;;;;;;4.63;3.60;;;18.60;99.90;;;;;;5052749;28;20869;-48
2022/07/27 06:02:40;;;;;;;3.80;3.30;;;18.60;99.90;;;;;;5052722;28;20461;-51
2022/07/27 06:05:07;;;;;;;5.43;2.97;;;18.60;99.90;;;;;;5052817;28;20448;-50
2022/07/27 06:10:19;;;;;;;10.33;3.97;;;18.70;99.90;;;;;;5052235;28;21100;-48
2022/07/27 06:12:48;;;;;;;5.30;4.03;;;18.80;99.90;;;;;;5052577;28;21008;-48
2022/07/27 06:15:16;;;;;;;8.33;3.50;;;18.70;99.90;;;;;;5052448;28;20449;-48
2022/07/27 06:17:45;;;;;;;4.60;3.93;;;18.70;99.90;;;;;;5052466;28;20458;-48
2022/07/27 06:20:13;;;;;;;4.03;3.10;;;18.70;99.90;;;;;;5052213;28;20930;-51
2022/07/27 06:22:51;;;;;;;7.23;5.17;;;18.70;99.90;;;;;;5052403;28;20461;-49
2022/07/27 06:25:19;;;;;;;4.53;3.93;;;18.70;99.90;;;;;;5052296;28;20914;-48
2022/07/27 06:27:47;;;;;;;4.40;3.80;;;18.70;99.90;;;;;;5052243;28;20496;-49
2022/07/27 06:30:16;;;;;;;7.10;4.30;;;18.60;99.90;;;;;;5052199;28;20836;-48
2022/07/27 06:32:44;;;;;;;3.90;3.50;;;18.60;99.90;;;;;;5052307;28;20449;-48
2022/07/27 06:35:12;;;;;;;5.63;3.53;;;18.60;99.90;;;;;;5052299;28;20449;-48
2022/07/27 06:37:42;;;;;;;5.83;3.77;;;18.70;99.90;;;;;;5051810;28;20822;-51
2022/07/27 06:40:11;;;;;;;4.27;3.53;;;18.70;99.90;;;;;;5050460;28;20998;-52
2022/07/27 06:42:39;;;;;;;3.77;3.37;;;18.70;99.90;;;;;;5052097;28;20473;-48
2022/07/27 06:45:09;;;;;;;7.67;4.13;;;18.70;99.90;;;;;;5052136;28;20451;-52
2022/07/27 06:47:38;;;;;;;4.40;3.50;;;18.90;99.90;;;;;;5051984;28;20974;-53
2022/07/27 06:50:06;;;;;;;3.33;3.00;;;18.90;99.90;;;;;;5051800;28;20514;-48
2022/07/27 06:52:34;;;;;;;4.40;3.10;;;18.90;99.90;;;;;;5051987;28;20473;-48
2022/07/27 06:55:01;;;;;;;3.57;2.63;;;18.80;99.90;;;;;;5051666;28;20521;-49
2022/07/27 06:57:28;;;;;;;4.10;3.13;;;18.70;99.90;;;;;;5051429;28;20577;-48
2022/07/27 06:59:55;;;;;;;3.30;2.70;;;18.70;99.90;;;;;;5051524;28;20449;-49
2022/07/27 07:02:23;;;;;;;4.80;3.47;;;18.80;99.90;;;;;;5051801;28;20430;-48
2022/07/27 07:04:50;;;;;;;5.30;2.87;;;18.90;99.90;;;;;;5051771;28;20441;-49
2022/07/27 07:07:17;;;;;;;3.80;3.37;;;18.90;99.90;;;;;;5051973;28;20465;-51
2022/07/27 07:09:44;;;;;;;4.53;3.70;;;19.00;99.90;;;;;;5051589;28;20454;-49
2022/07/27 07:12:11;;;;;;;6.77;4.50;;;18.90;99.90;;;;;;5051766;28;20437;-48
2022/07/27 07:14:38;;;;;;;6.60;3.90;;;18.90;99.90;;;;;;5051612;28;20453;-49
2022/07/27 07:17:05;;;;;;;4.70;4.13;;;18.80;99.90;;;;;;5051835;28;20863;-49
2022/07/27 07:19:33;;;;;;;4.63;4.23;;;18.80;99.90;;;;;;5051407;28;20452;-51
2022/07/27 07:22:00;;;;;;;4.10;3.50;;;18.90;99.90;;;;;;5051571;28;20545;-48
2022/07/27 07:24:28;;;;;;;5.80;3.80;;;19.00;99.90;;;;;;5051776;28;20442;-49
2022/07/27 07:26:55;;;;;;;3.43;3.07;;;19.10;99.90;;;;;;5051301;28;20433;-48
2022/07/27 07:29:22;;;;;;;3.70;3.33;;;19.10;99.90;;;;;;5051350;28;20500;-51
2022/07/27 07:31:49;;;;;;;3.90;3.60;;;19.20;99.90;;;;;;5051219;28;20499;-49
2022/07/27 07:34:16;;;;;;;4.70;3.40;;;19.00;99.90;;;;;;5051154;28;20736;-49
2022/07/27 07:36:46;;;;;;;3.07;2.77;;;19.00;99.90;;;;;;5051113;28;20476;-48
2022/07/27 07:39:13;;;;;;;3.63;3.30;;;19.10;99.90;;;;;;5050460;28;20958;-48
2022/07/27 07:41:40;;;;;;;8.03;3.60;;;19.10;99.90;;;;;;5050625;28;20458;-48
2022/07/27 07:44:08;;;;;;;4.10;3.00;;;19.20;99.90;;;;;;5050743;28;20430;-51
2022/07/27 07:46:36;;;;;;;4.43;3.10;;;19.30;99.90;;;;;;5050708;28;20487;-52
2022/07/27 07:49:04;;;;;;;3.80;3.50;;;19.30;99.90;;;;;;5050576;28;20473;-48
2022/07/27 07:51:31;;;;;;;3.30;3.00;;;19.20;99.90;;;;;;5050459;28;20492;-49
2022/07/27 07:53:59;;;;;;;7.10;3.73;;;19.20;99.90;;;;;;5050815;28;20452;-49
2022/07/27 07:56:26;;;;;;;3.73;3.40;;;19.40;99.90;;;;;;5050526;28;20547;-50
2022/07/27 07:58:53;;;;;;;5.40;3.47;;;19.40;99.90;;;;;;5050189;28;20907;-50
2022/07/27 08:01:20;;;;;;;3.77;3.37;;;19.60;99.90;;;;;;5050598;28;20479;-53
2022/07/27 08:03:48;;;;;;;3.27;2.80;;;19.60;99.90;;;;;;5050654;28;20457;-48
2022/07/27 08:06:15;;;;;;;3.30;3.00;;;19.70;99.90;;;;;;5050536;28;20446;-51
2022/07/27 08:08:42;;;;;;;4.20;3.10;;;19.70;99.90;;;;;;5050121;28;20469;-52
2022/07/27 08:11:10;;;;;;;4.33;2.87;;;19.70;99.90;;;;;;5049816;28;20829;-49
2022/07/27 08:13:37;;;;;;;8.93;3.47;;;19.80;99.90;;;;;;5050580;28;20481;-53
2022/07/27 08:16:05;;;;;;;4.60;3.60;;;19.90;99.90;;;;;;5050259;28;20466;-48
2022/07/27 08:18:32;;;;;;;5.80;2.83;;;19.90;99.90;;;;;;5050205;28;20465;-49
2022/07/27 08:20:59;;;;;;;2.93;2.63;;;20.00;99.90;;;;;;5050043;28;21049;-50
2022/07/27 08:23:26;;;;;;;4.17;3.40;;;20.10;99.90;;;;;;5050262;28;20442;-49
2022/07/27 08:25:53;;;;;;;4.07;3.67;;;20.20;99.90;;;;;;5050601;28;20544;-48
2022/07/27 08:28:21;;;;;;;4.17;3.73;;;20.20;99.90;;;;;;5050124;28;20465;-50
2022/07/27 08:30:49;;;;;;;4.80;3.00;;;20.30;99.90;;;;;;5049887;28;20503;-50
2022/07/27 08:33:16;;;;;;;3.70;3.10;;;20.30;99.90;;;;;;5050090;28;20850;-49
2022/07/27 08:35:44;;;;;;;7.23;3.30;;;20.20;99.90;;;;;;5050064;28;20449;-48
2022/07/27 08:38:11;;;;;;;4.10;2.70;;;20.20;99.90;;;;;;5049717;28;20474;-49
2022/07/27 08:40:40;;;;;;;3.70;3.30;;;20.20;99.90;;;;;;5049413;28;20930;-48
2022/07/27 08:43:08;;;;;;;3.87;2.77;;;20.20;99.90;;;;;;5050031;28;20565;-49
2022/07/27 08:45:37;;;;;;;3.60;3.10;;;20.20;99.90;;;;;;5050009;28;20786;-48
2022/07/27 08:48:05;;;;;;;4.50;3.47;;;20.20;99.90;;;;;;5049516;28;20889;-49
2022/07/27 08:50:34;;;;;;;5.27;3.47;;;20.20;99.90;;;;;;5049700;28;20480;-48
2022/07/27 08:53:03;;;;;;;3.93;3.40;;;20.10;99.90;;;;;;5050196;28;20434;-50
2022/07/27 08:55:31;;;;;;;3.77;3.10;;;20.10;99.90;;;;;;5049711;28;20479;-49
2022/07/27 08:57:59;;;;;;;4.53;3.60;;;20.20;99.90;;;;;;5049437;28;20551;-48
2022/07/27 09:00:27;;;;;;;3.20;2.90;;;20.20;99.90;;;;;;5049635;28;20453;-51
2022/07/27 09:02:57;;;;;;;4.30;3.20;;;20.20;99.90;;;;;;5050448;28;20438;-48
2022/07/27 09:05:25;;;;;;;4.10;3.53;;;20.30;99.90;;;;;;5053850;28;20449;-48
2022/07/27 09:07:52;;;;;;;3.63;3.20;;;20.40;99.90;;;;;;5053661;28;20461;-48
2022/07/27 09:10:30;;;;;;;3.70;3.30;;;20.50;99.90;;;;;;5053561;28;20433;-48
2022/07/27 09:12:58;;;;;;;6.60;6.00;;;20.60;99.90;;;;;;5053654;28;20793;-49
2022/07/27 09:15:26;;;;;;;6.23;3.67;;;20.60;99.90;;;;;;5053768;28;20445;-51
2022/07/27 09:17:53;;;;;;;3.27;2.47;;;20.70;99.90;;;;;;5053605;28;20512;-48
2022/07/27 09:20:21;;;;;;;4.30;3.80;;;20.70;99.90;;;;;;5053388;28;20977;-48
2022/07/27 09:22:51;;;;;;;4.60;3.70;;;20.80;99.90;;;;;;5053644;28;20457;-48
2022/07/27 09:25:20;;;;;;;3.93;3.17;;;20.90;99.90;;;;;;5053399;28;20528;-49
2022/07/27 09:27:48;;;;;;;3.53;3.23;;;20.90;99.90;;;;;;5053479;28;20556;-49
2022/07/27 09:30:18;;;;;;;4.10;3.70;;;21.00;99.90;;;;;;5053104;28;20464;-49
2022/07/27 09:32:57;;;;;;;4.80;4.13;;;21.10;99.90;;;;;;5053432;28;20884;-51
2022/07/27 09:35:29;;;;;;;5.07;4.27;;;21.20;99.90;;;;;;5053384;28;20441;-52
2022/07/27 09:37:56;;;;;;;3.67;3.23;;;21.20;99.90;;;;;;5068107;22;1324399;-45
2022/07/27 09:40:24;;;;;;;3.60;3.30;;;21.30;99.90;;;;;;5070948;28;20281;-45
2022/07/27 09:43:11;;;;;;;5.57;3.93;;;21.30;99.90;;;;;;5073262;28;20460;-45
2022/07/27 09:45:39;;;;;;;4.80;3.93;;;21.10;99.90;;;;;;5073271;28;20498;-45
2022/07/27 09:48:14;;;;;;;4.90;3.90;;;21.00;99.90;;;;;;5072932;28;20504;-47
2022/07/27 09:50:45;;;;;;;4.87;3.80;;;21.10;99.90;;;;;;5072697;28;20430;-45
2022/07/27 09:53:17;;;;;;;4.53;4.00;;;21.20;99.90;;;;;;5072917;28;20428;-45
2022/07/27 09:55:45;;;;;;;3.93;3.53;;;21.30;99.90;;;;;;5072930;28;20428;-48
2022/07/27 09:58:12;;;;;;;3.50;3.20;;;21.40;99.90;;;;;;5072568;28;20472;-48
2022/07/27 10:00:40;;;;;;;4.70;3.50;;;21.40;99.90;;;;;;5072722;28;20444;-49
2022/07/27 10:03:08;;;;;;;3.93;3.53;;;21.50;99.90;;;;;;5072793;28;20459;-46
2022/07/27 10:05:35;;;;;;;3.70;3.40;;;21.60;99.90;;;;;;5072830;28;20948;-46
2022/07/27 10:08:04;;;;;;;3.80;3.00;;;21.60;99.90;;;;;;5072791;28;20472;-46
2022/07/27 10:10:31;;;;;;;5.30;4.40;;;21.50;99.90;;;;;;5072422;28;20863;-46
2022/07/27 10:12:58;;;;;;;3.83;3.50;;;21.50;99.90;;;;;;5072710;28;20451;-47
2022/07/27 10:15:25;;;;;;;4.17;3.37;;;21.50;99.90;;;;;;5072277;28;20433;-48
2022/07/27 10:18:00;;;;;;;4.47;3.67;;;21.60;99.90;;;;;;5072375;28;20476;-46
2022/07/27 10:20:28;;;;;;;4.43;3.63;;;21.60;99.90;;;;;;5072386;28;20538;-46
2022/07/27 10:22:57;;;;;;;4.37;3.97;;;21.60;99.90;;;;;;5072452;28;20453;-49
2022/07/27 10:25:28;;;;;;;3.30;3.00;;;21.50;99.90;;;;;;5072316;28;20428;-48
2022/07/27 10:28:10;;;;;;;4.50;4.10;;;21.50;99.90;;;;;;5072073;28;20456;-45
2022/07/27 10:30:37;;;;;;;4.97;4.03;;;21.50;99.90;;;;;;5071641;28;20444;-48
2022/07/27 10:33:14;;;;;;;3.87;3.50;;;21.50;99.90;;;;;;5071064;28;20490;-45
2022/07/27 10:35:41;;;;;;;4.50;4.10;;;21.40;99.90;;;;;;5071562;28;20441;-46
2022/07/27 10:38:11;;;;;;;4.77;3.90;;;21.40;99.90;;;;;;5070829;28;20900;-47
2022/07/27 10:40:40;;;;;;;7.80;4.33;;;21.50;99.90;;;;;;5071344;28;20848;-48
2022/07/27 10:43:10;;;;;;;4.00;3.70;;;21.50;99.90;;;;;;5071877;28;20440;-46
2022/07/27 10:45:43;;;;;;;4.90;3.97;;;21.50;99.90;;;;;;5071951;28;20502;-46
2022/07/27 10:48:35;;;;;;;4.10;3.70;;;21.60;99.90;;;;;;5071495;28;20464;-46
2022/07/27 10:51:02;;;;;;;4.70;3.73;;;21.70;99.90;;;;;;5071317;28;20444;-45
2022/07/27 10:53:34;;;;;;;4.53;3.70;;;21.70;99.90;;;;;;5071836;28;20444;-49
2022/07/27 10:56:03;;;;;;;6.00;4.30;;;21.80;99.90;;;;;;5071719;28;20968;-48
2022/07/27 10:58:47;;;;;;;5.93;4.33;;;21.90;99.90;;;;;;5071393;28;20476;-47
2022/07/27 11:01:19;;;;;;;3.97;3.57;;;21.80;99.90;;;;;;5071547;28;20475;-46
2022/07/27 11:03:52;;;;;;;5.77;4.50;;;21.90;99.90;;;;;;5071718;28;20467;-49
2022/07/27 11:06:30;;;;;;;4.83;4.33;;;22.00;99.90;;;;;;5071648;28;20547;-47
2022/07/27 11:08:59;;;;;;;5.70;4.20;;;21.90;99.90;;;;;;5071349;28;20551;-48
2022/07/27 11:11:28;;;;;;;4.93;3.60;;;22.00;99.90;;;;;;5071394;28;20944;-47
2022/07/27 11:13:57;;;;;;;4.73;4.33;;;22.00;99.90;;;;;;5071548;28;20659;-45
2022/07/27 11:16:27;;;;;;;6.20;4.53;;;22.00;99.90;;;;;;5071343;28;20443;-49
2022/07/27 11:18:58;;;;;;;4.97;4.03;;;22.10;99.90;;;;;;5070844;28;20973;-47
2022/07/27 11:21:26;;;;;;;4.00;3.70;;;22.10;99.90;;;;;;5071199;28;20451;-50
2022/07/27 11:23:55;;;;;;;6.00;4.20;;;22.10;99.90;;;;;;5071270;28;20518;-47
2022/07/27 11:26:23;;;;;;;4.80;4.37;;;22.10;99.90;;;;;;5070823;28;20440;-48
2022/07/27 11:28:52;;;;;;;4.40;3.73;;;22.20;99.90;;;;;;5070861;28;20518;-45
2022/07/27 11:31:20;;;;;;;4.50;3.90;;;22.20;99.90;;;;;;5071119;28;20452;-46
2022/07/27 11:33:52;;;;;;;5.97;4.60;;;22.30;99.90;;;;;;5071187;28;20495;-46
2022/07/27 11:36:20;;;;;;;5.10;4.57;;;22.40;99.90;;;;;;5071061;28;20486;-48
2022/07/27 11:38:48;;;;;;;4.77;4.30;;;22.60;99.90;;;;;;5070303;28;20486;-46
2022/07/27 11:41:26;;;;;;;6.60;4.30;;;22.60;99.90;;;;;;5070378;28;20566;-46
2022/07/27 11:43:58;;;;;;;4.13;3.50;;;22.70;99.90;;;;;;5070855;28;20448;-46
2022/07/27 11:46:27;;;;;;;4.80;4.07;;;22.90;99.90;;;;;;5070678;28;20457;-46
2022/07/27 11:48:57;;;;;;;4.40;4.00;;;23.00;99.90;;;;;;5070488;28;20514;-49
2022/07/27 11:51:24;;;;;;;4.53;4.03;;;23.00;99.90;;;;;;5070798;28;20444;-46
2022/07/27 11:53:56;;;;;;;4.17;3.77;;;23.20;99.90;;;;;;5070611;28;20828;-47
2022/07/27 11:56:24;;;;;;;4.10;3.70;;;23.20;99.90;;;;;;5070559;28;20428;-47
2022/07/27 11:59:02;;;;;;;4.43;3.80;;;23.20;99.90;;;;;;5069992;28;20480;-46
2022/07/27 12:01:32;;;;;;;4.40;3.77;;;23.30;99.90;;;;;;5070197;28;20482;-48
2022/07/27 12:04:21;;;;;;;3.67;3.33;;;23.30;99.90;;;;;;5070420;28;20441;-47
2022/07/27 12:06:59;;;;;;;4.40;3.83;;;23.40;99.90;;;;;;5066172;28;20475;-46
2022/07/27 12:09:27;;;;;;;6.40;4.10;;;23.40;99.90;;;;;;5070626;28;20460;-49
2022/07/27 12:11:57;;;;;;;7.00;4.17;;;23.40;99.90;;;;;;5070242;28;20494;-46
2022/07/27 12:14:33;;;;;;;7.90;4.20;;;23.50;99.90;;;;;;5070292;28;20498;-48
2022/07/27 12:17:18;;;;;;;4.27;3.87;;;23.50;99.90;;;;;;5070116;28;20428;-48
2022/07/27 12:19:52;;;;;;;5.40;3.67;;;23.60;99.90;;;;;;5070097;28;20556;-47
2022/07/27 12:22:27;;;;;;;4.50;3.60;;;23.60;99.90;;;;;;5070721;28;20463;-47
2022/07/27 12:24:55;;;;;;;5.50;3.80;;;23.50;99.90;;;;;;5070127;28;20476;-48
2022/07/27 12:27:25;;;;;;;4.20;3.80;;;23.50;99.90;;;;;;5070191;28;20885;-50
2022/07/27 12:30:02;;;;;;;5.23;3.43;;;23.50;99.90;;;;;;5069713;28;20884;-46
2022/07/27 12:32:32;;;;;;;4.40;4.00;;;23.50;99.90;;;;;;5070150;28;20525;-46
2022/07/27 12:34:59;;;;;;;5.40;3.63;;;23.40;99.90;;;;;;5069951;28;20436;-48
2022/07/27 12:37:31;;;;;;;8.40;4.37;;;23.40;99.90;;;;;;5069743;28;20877;-47
2022/07/27 12:39:58;;;;;;;6.43;3.97;;;23.40;99.90;;;;;;5069840;28;20498;-48
2022/07/27 12:42:33;;;;;;;4.10;3.70;;;23.40;99.90;;;;;;5069574;28;20536;-46
2022/07/27 12:45:14;;;;;;;4.50;4.10;;;23.40;99.90;;;;;;5070214;28;20455;-47
2022/07/27 12:47:41;;;;;;;3.70;3.40;;;23.50;99.90;;;;;;5069621;28;20432;-47
2022/07/27 12:50:10;;;;;;;5.10;4.07;;;23.50;99.90;;;;;;5069752;28;20448;-46
2022/07/27 12:52:41;;;;;;;4.70;4.20;;;23.50;99.90;;;;;;5069810;28;20429;-47
2022/07/27 12:55:10;;;;;;;7.80;4.10;;;23.50;99.90;;;;;;5069811;28;20814;-49
2022/07/27 12:57:37;;;;;;;4.60;3.90;;;23.40;99.90;;;;;;5069637;28;20477;-48